createdAt,value
2018-02-10T00:01:24.519Z,-0.20
2018-02-10T00:03:52.847Z,-0.30
2018-02-10T00:06:22.044Z,-0.30
2018-02-10T00:08:50.343Z,-0.30
2018-02-10T00:11:19.419Z,-0.40
2018-02-10T00:13:47.776Z,-0.40
2018-02-10T00:16:16.068Z,-0.30
2018-02-10T00:18:44.516Z,-0.30
2018-02-10T00:21:12.829Z,-0.30
2018-02-10T00:23:41.895Z,-0.20
2018-02-10T00:26:10.328Z,-0.30
2018-02-10T00:28:38.648Z,-0.20
2018-02-10T00:31:06.948Z,-0.30
2018-02-10T00:33:35.276Z,-0.10
2018-02-10T00:36:03.576Z,0.10
2018-02-10T00:38:32.673Z,0.10
2018-02-10T00:41:00.970Z,0.10
2018-02-10T00:43:29.316Z,0.10
2018-02-10T00:45:57.628Z,0.10
2018-02-10T00:48:25.923Z,0.00
2018-02-10T00:50:55.109Z,0.00
2018-02-10T00:53:23.396Z,0.00
2018-02-10T00:55:51.737Z,0.00
2018-02-10T00:58:20.813Z,0.00
2018-02-10T01:00:49.152Z,-0.10
2018-02-10T01:03:17.473Z,0.00
2018-02-10T01:05:45.776Z,-0.10
2018-02-10T01:08:14.373Z,-0.10
2018-02-10T01:10:42.680Z,-0.10
2018-02-10T01:13:11.015Z,-0.10
2018-02-10T01:15:40.132Z,0.00
2018-02-10T01:18:08.475Z,0.00
2018-02-10T01:20:37.081Z,0.00
2018-02-10T01:23:06.147Z,0.00
2018-02-10T01:25:34.471Z,0.00
2018-02-10T01:28:02.815Z,0.00
2018-02-10T01:30:31.135Z,0.00
2018-02-10T01:32:59.472Z,0.00
2018-02-10T01:35:27.779Z,0.00
2018-02-10T01:37:56.116Z,0.00
2018-02-10T01:40:24.421Z,0.00
2018-02-10T01:42:53.740Z,0.10
2018-02-10T01:45:22.801Z,0.00
2018-02-10T01:47:51.115Z,0.00
2018-02-10T01:50:22.291Z,0.00
2018-02-10T01:52:51.363Z,0.00
2018-02-10T01:55:19.716Z,0.00
2018-02-10T01:57:48.796Z,0.00
2018-02-10T02:00:17.888Z,0.00
2018-02-10T02:02:46.212Z,0.00
2018-02-10T02:05:14.550Z,0.00
2018-02-10T02:07:43.166Z,0.00
2018-02-10T02:10:11.468Z,0.00
2018-02-10T02:12:39.772Z,0.00
2018-02-10T02:15:08.867Z,0.00
2018-02-10T02:17:37.966Z,0.00
2018-02-10T02:20:06.280Z,0.00
2018-02-10T02:22:35.341Z,0.00
2018-02-10T02:25:03.663Z,0.00
2018-02-10T02:27:32.729Z,0.20
2018-02-10T02:30:01.308Z,0.10
2018-02-10T02:32:29.605Z,0.10
2018-02-10T02:34:57.957Z,0.10
2018-02-10T02:37:27.069Z,0.10
2018-02-10T02:39:56.124Z,0.00
2018-02-10T02:42:24.429Z,0.00
2018-02-10T02:44:52.752Z,0.10
2018-02-10T02:47:21.813Z,0.10
2018-02-10T02:49:50.153Z,0.00
2018-02-10T02:52:18.482Z,0.10
2018-02-10T02:54:46.788Z,0.10
2018-02-10T02:57:15.113Z,0.10
2018-02-10T02:59:44.188Z,0.10
2018-02-10T03:02:12.517Z,0.10
2018-02-10T03:04:41.600Z,0.20
2018-02-10T03:07:09.988Z,0.20
2018-02-10T03:09:38.308Z,0.20
2018-02-10T03:12:07.416Z,0.20
2018-02-10T03:14:36.488Z,0.30
2018-02-10T03:17:04.785Z,0.30
2018-02-10T03:19:33.435Z,0.50
2018-02-10T03:22:01.737Z,0.60
2018-02-10T03:24:30.065Z,0.50
2018-02-10T03:26:58.384Z,0.60
2018-02-10T03:29:27.482Z,0.70
2018-02-10T03:31:55.773Z,0.60
2018-02-10T03:34:24.860Z,0.90
2018-02-10T03:36:53.200Z,0.90
2018-02-10T03:39:22.289Z,0.80
2018-02-10T03:41:51.373Z,0.80
2018-02-10T03:44:19.756Z,0.80
2018-02-10T03:46:48.095Z,0.70
2018-02-10T03:49:16.417Z,0.60
2018-02-10T03:51:44.709Z,0.60
2018-02-10T03:54:13.042Z,0.70
2018-02-10T03:56:42.091Z,0.70
2018-02-10T03:59:10.429Z,0.70
2018-02-10T04:01:39.509Z,0.60
2018-02-10T04:04:07.819Z,0.60
2018-02-10T04:06:36.161Z,0.50
2018-02-10T04:09:04.456Z,0.50
2018-02-10T04:11:32.756Z,0.50
2018-02-10T04:14:01.156Z,0.70
2018-02-10T04:16:29.551Z,0.70
2018-02-10T04:18:57.855Z,0.60
2018-02-10T04:21:26.198Z,0.70
2018-02-10T04:23:54.496Z,0.70
2018-02-10T04:26:22.824Z,0.60
2018-02-10T04:28:51.120Z,0.50
2018-02-10T04:31:19.452Z,0.50
2018-02-10T04:33:47.759Z,0.50
2018-02-10T04:36:16.095Z,0.50
2018-02-10T04:38:44.384Z,0.60
2018-02-10T04:41:12.685Z,0.80
2018-02-10T04:43:41.057Z,0.80
2018-02-10T04:46:09.372Z,0.90
2018-02-10T04:48:37.699Z,0.90
2018-02-10T04:51:06.008Z,1.00
2018-02-10T04:53:34.355Z,0.90
2018-02-10T04:56:03.429Z,0.70
2018-02-10T04:58:31.797Z,0.70
2018-02-10T05:01:00.098Z,0.70
2018-02-10T05:03:28.432Z,0.70
2018-02-10T05:05:57.510Z,0.70
2018-02-10T05:08:25.840Z,0.70
2018-02-10T05:10:54.176Z,0.90
2018-02-10T05:13:22.541Z,0.90
2018-02-10T05:15:50.846Z,0.90
2018-02-10T05:18:19.165Z,0.90
2018-02-10T05:20:47.495Z,0.80
2018-02-10T05:23:15.841Z,0.70
2018-02-10T05:25:44.155Z,0.80
2018-02-10T05:28:13.251Z,1.00
2018-02-10T05:30:41.548Z,0.90
2018-02-10T05:33:09.881Z,0.90
2018-02-10T05:35:38.194Z,0.90
2018-02-10T05:38:06.495Z,0.80
2018-02-10T05:40:34.868Z,0.90
2018-02-10T05:43:03.164Z,0.90
2018-02-10T05:45:31.500Z,1.00
2018-02-10T05:48:00.562Z,1.00
2018-02-10T05:50:28.889Z,1.00
2018-02-10T05:52:57.201Z,1.00
2018-02-10T05:55:25.525Z,1.10
2018-02-10T05:57:53.818Z,1.00
2018-02-10T06:00:22.173Z,1.10
2018-02-10T06:02:50.485Z,1.10
2018-02-10T06:05:18.855Z,1.00
2018-02-10T06:07:47.152Z,0.90
2018-02-10T06:10:15.499Z,0.90
2018-02-10T06:12:43.796Z,0.80
2018-02-10T06:15:12.129Z,0.80
2018-02-10T06:17:40.465Z,0.80
2018-02-10T06:20:08.800Z,0.80
2018-02-10T06:22:37.412Z,0.80
2018-02-10T06:25:05.758Z,0.90
2018-02-10T06:27:34.836Z,0.90
2018-02-10T06:30:03.189Z,0.90
2018-02-10T06:32:31.518Z,0.90
2018-02-10T06:35:00.103Z,0.80
2018-02-10T06:37:28.399Z,0.80
2018-02-10T06:39:56.749Z,0.70
2018-02-10T06:42:25.044Z,0.70
2018-02-10T06:44:53.379Z,0.70
2018-02-10T06:47:21.680Z,0.70
2018-02-10T06:49:50.010Z,0.80
2018-02-10T06:52:18.435Z,0.90
2018-02-10T06:54:46.769Z,0.80
2018-02-10T06:57:15.840Z,0.80
2018-02-10T06:59:44.160Z,0.80
2018-02-10T07:02:12.472Z,0.70
2018-02-10T07:04:41.582Z,0.90
2018-02-10T07:07:10.741Z,0.90
2018-02-10T07:09:39.039Z,0.90
2018-02-10T07:12:07.364Z,1.00
2018-02-10T07:14:36.439Z,1.00
2018-02-10T07:17:04.776Z,0.90
2018-02-10T07:19:33.078Z,1.10
2018-02-10T07:22:01.414Z,1.20
2018-02-10T07:24:29.796Z,1.00
2018-02-10T07:26:58.126Z,1.00
2018-02-10T07:29:26.436Z,1.00
2018-02-10T07:31:54.784Z,1.00
2018-02-10T07:34:23.183Z,1.00
2018-02-10T07:36:52.288Z,1.10
2018-02-10T07:39:20.585Z,1.10
2018-02-10T07:41:49.724Z,1.10
2018-02-10T07:44:18.019Z,1.10
2018-02-10T07:46:46.383Z,1.20
2018-02-10T07:49:15.453Z,1.10
2018-02-10T07:51:43.784Z,1.10
2018-02-10T07:54:12.848Z,1.10
2018-02-10T07:56:41.149Z,1.10
2018-02-10T07:59:09.475Z,1.20
2018-02-10T08:01:38.539Z,1.20
2018-02-10T08:04:06.900Z,1.20
2018-02-10T08:06:35.305Z,1.30
2018-02-10T08:09:03.658Z,1.20
2018-02-10T08:11:32.000Z,1.30
2018-02-10T08:14:00.357Z,1.20
2018-02-10T08:16:28.668Z,1.20
2018-02-10T08:18:56.999Z,1.30
2018-02-10T08:21:25.302Z,1.30
2018-02-10T08:23:54.402Z,1.60
2018-02-10T08:26:22.721Z,1.60
2018-02-10T08:28:51.077Z,1.60
2018-02-10T08:31:19.386Z,1.60
2018-02-10T08:33:48.485Z,1.60
2018-02-10T08:36:17.562Z,1.60
2018-02-10T08:38:45.908Z,1.60
2018-02-10T08:41:14.232Z,1.70
2018-02-10T08:43:42.574Z,1.70
2018-02-10T08:46:10.884Z,1.60
2018-02-10T08:48:39.311Z,1.70
2018-02-10T08:51:07.618Z,1.70
2018-02-10T08:53:35.943Z,1.80
2018-02-10T08:56:05.043Z,1.80
2018-02-10T08:58:34.120Z,1.80
2018-02-10T09:01:02.479Z,1.80
2018-02-10T09:03:30.823Z,1.70
2018-02-10T09:05:59.942Z,1.80
2018-02-10T09:08:29.016Z,1.80
2018-02-10T09:10:57.409Z,1.70
2018-02-10T09:13:25.713Z,1.80
2018-02-10T09:15:54.111Z,1.90
2018-02-10T09:18:23.191Z,1.90
2018-02-10T09:20:51.489Z,1.90
2018-02-10T09:23:19.822Z,1.90
2018-02-10T09:25:48.132Z,2.00
2018-02-10T09:28:16.464Z,2.00
2018-02-10T09:30:44.771Z,2.10
2018-02-10T09:33:13.916Z,2.20
2018-02-10T09:35:42.222Z,2.20
2018-02-10T09:38:10.549Z,2.30
2018-02-10T09:40:38.951Z,2.30
2018-02-10T09:43:08.050Z,2.20
2018-02-10T09:45:36.367Z,2.20
2018-02-10T09:48:05.427Z,2.40
2018-02-10T09:50:33.799Z,2.40
2018-02-10T09:53:02.154Z,2.40
2018-02-10T09:55:30.495Z,2.40
2018-02-10T09:57:58.863Z,2.40
2018-02-10T10:00:27.156Z,2.40
2018-02-10T10:02:55.492Z,2.50
2018-02-10T10:05:23.811Z,2.60
2018-02-10T10:07:52.877Z,2.70
2018-02-10T10:10:21.241Z,2.70
2018-02-10T10:12:49.533Z,2.70
2018-02-10T10:15:17.870Z,2.70
2018-02-10T10:17:46.972Z,2.60
2018-02-10T10:20:16.056Z,2.60
2018-02-10T10:22:44.383Z,2.60
2018-02-10T10:25:13.488Z,2.50
2018-02-10T10:27:41.815Z,2.50
2018-02-10T10:30:10.188Z,2.60
2018-02-10T10:32:38.546Z,2.60
2018-02-10T10:35:07.655Z,2.70
2018-02-10T10:37:36.041Z,2.70
2018-02-10T10:40:04.374Z,2.80
2018-02-10T10:42:32.674Z,2.70
2018-02-10T10:45:01.246Z,2.70
2018-02-10T10:47:32.708Z,2.60
2018-02-10T10:50:01.176Z,2.60
2018-02-10T10:52:29.578Z,2.50
2018-02-10T10:54:59.194Z,2.50
2018-02-10T10:57:28.523Z,2.60
2018-02-10T10:59:56.815Z,2.50
2018-02-10T11:02:26.167Z,2.50
2018-02-10T11:04:55.391Z,2.60
2018-02-10T11:07:23.812Z,2.60
2018-02-10T11:09:52.140Z,2.60
2018-02-10T11:12:20.576Z,2.60
2018-02-10T11:14:48.893Z,2.60
2018-02-10T11:17:17.285Z,2.70
2018-02-10T11:19:45.676Z,2.60
2018-02-10T11:22:14.311Z,2.60
2018-02-10T11:24:42.672Z,2.70
2018-02-10T11:27:13.141Z,2.60
2018-02-10T11:29:42.251Z,2.80
2018-02-10T11:32:10.671Z,2.80
2018-02-10T11:34:39.000Z,2.80
2018-02-10T11:37:07.350Z,2.80
2018-02-10T11:39:35.924Z,2.80
2018-02-10T11:42:05.973Z,2.80
2018-02-10T11:44:34.306Z,2.80
2018-02-10T11:47:02.770Z,2.90
2018-02-10T11:49:31.136Z,2.90
2018-02-10T11:52:10.342Z,2.90
2018-02-10T11:54:38.663Z,2.80
2018-02-10T11:57:07.730Z,2.90
2018-02-10T11:59:36.714Z,2.90
2018-02-10T12:02:09.511Z,2.90
2018-02-10T12:04:37.961Z,2.90
2018-02-10T12:07:06.418Z,2.90
2018-02-10T12:09:34.961Z,3.00
2018-02-10T12:12:03.273Z,3.00
2018-02-10T12:14:31.594Z,3.00
2018-02-10T12:16:59.926Z,2.90
2018-02-10T12:19:28.440Z,2.90
2018-02-10T12:21:56.766Z,2.90
2018-02-10T12:24:25.057Z,2.80
2018-02-10T12:26:53.403Z,2.80
2018-02-10T12:29:21.684Z,2.90
2018-02-10T12:31:50.079Z,2.90
2018-02-10T12:34:33.709Z,2.90
2018-02-10T12:37:02.824Z,2.80
2018-02-10T12:39:31.114Z,2.80
2018-02-10T12:41:59.448Z,2.80
2018-02-10T12:44:27.769Z,2.90
2018-02-10T12:46:56.145Z,2.90
2018-02-10T12:49:29.832Z,2.80
2018-02-10T12:51:58.190Z,2.80
2018-02-10T12:54:26.510Z,2.80
2018-02-10T12:56:54.848Z,2.80
2018-02-10T12:59:23.143Z,2.80
2018-02-10T13:01:51.507Z,2.80
2018-02-10T13:04:21.769Z,2.80
2018-02-10T13:06:50.881Z,2.70
2018-02-10T13:09:20.144Z,2.70
2018-02-10T13:11:48.491Z,2.80
2018-02-10T13:14:16.835Z,2.80
2018-02-10T13:16:45.136Z,2.80
2018-02-10T13:19:13.482Z,2.80
2018-02-10T13:21:41.874Z,2.90
2018-02-10T13:24:10.261Z,3.00
2018-02-10T13:26:38.684Z,3.00
2018-02-10T13:29:07.183Z,3.10
2018-02-10T13:31:35.515Z,3.10
2018-02-10T13:34:05.843Z,3.20
2018-02-10T13:36:34.970Z,3.20
2018-02-10T13:39:03.357Z,3.10
2018-02-10T13:41:32.584Z,3.30
2018-02-10T13:44:00.920Z,3.40
2018-02-10T13:46:29.250Z,3.50
2018-02-10T13:48:57.658Z,3.40
2018-02-10T13:51:25.994Z,3.40
2018-02-10T13:54:07.059Z,3.50
2018-02-10T13:56:35.439Z,3.40
2018-02-10T13:59:03.781Z,3.50
2018-02-10T14:01:32.077Z,3.50
2018-02-10T14:04:00.400Z,3.40
2018-02-10T14:06:29.718Z,3.40
2018-02-10T14:08:58.092Z,3.30
2018-02-10T14:11:26.776Z,3.30
2018-02-10T14:13:58.191Z,3.50
2018-02-10T14:16:26.512Z,3.40
2018-02-10T14:18:55.608Z,3.30
2018-02-10T14:21:25.325Z,3.30
2018-02-10T14:23:53.691Z,3.40
2018-02-10T14:26:22.088Z,3.50
2018-02-10T14:28:50.436Z,3.60
2018-02-10T14:31:18.842Z,3.70
2018-02-10T14:33:47.242Z,3.50
2018-02-10T14:36:23.673Z,3.50
2018-02-10T14:38:52.027Z,3.40
2018-02-10T14:41:20.315Z,3.40
2018-02-10T14:43:48.664Z,3.40
2018-02-10T14:46:16.982Z,3.30
2018-02-10T14:48:45.382Z,3.30
2018-02-10T14:51:13.769Z,3.30
2018-02-10T14:53:44.116Z,3.40
2018-02-10T14:56:12.523Z,3.30
2018-02-10T14:58:40.885Z,3.20
2018-02-10T15:01:09.223Z,3.20
2018-02-10T15:03:37.591Z,3.20
2018-02-10T15:06:05.908Z,3.10
2018-02-10T15:08:36.731Z,3.10
2018-02-10T15:11:05.898Z,3.10
2018-02-10T15:13:34.323Z,3.10
2018-02-10T15:16:03.144Z,3.10
2018-02-10T15:18:32.560Z,3.10
2018-02-10T15:21:00.879Z,3.10
2018-02-10T15:23:29.211Z,3.10
2018-02-10T15:25:57.611Z,3.10
2018-02-10T15:28:26.049Z,3.00
2018-02-10T15:31:12.155Z,3.00
2018-02-10T16:30:39.922Z,2.90
2018-02-10T16:33:08.210Z,2.80
2018-02-10T16:35:39.296Z,2.90
2018-02-10T16:38:08.465Z,3.00
2018-02-10T16:40:37.613Z,3.00
2018-02-10T16:43:06.223Z,3.00
2018-02-10T16:45:34.598Z,3.00
2018-02-10T16:48:08.456Z,3.00
2018-02-10T16:50:36.758Z,2.90
2018-02-10T16:53:05.060Z,2.90
2018-02-10T16:55:33.412Z,2.90
2018-02-10T16:58:14.519Z,3.00
2018-02-10T17:00:42.827Z,3.00
2018-02-10T17:03:13.936Z,3.00
2018-02-10T17:05:42.423Z,3.00
2018-02-10T17:08:11.100Z,3.00
2018-02-10T17:10:39.386Z,3.00
2018-02-10T17:13:14.089Z,3.00
2018-02-10T17:15:42.387Z,3.00
2018-02-10T17:18:10.818Z,3.00
2018-02-10T17:21:12.822Z,3.00
2018-02-10T17:23:43.968Z,2.90
2018-02-10T17:26:15.749Z,3.00
2018-02-10T17:28:44.104Z,3.00
2018-02-10T17:31:12.423Z,2.90
2018-02-10T17:33:40.780Z,3.00
2018-02-10T17:36:10.038Z,3.00
2018-02-10T17:38:38.852Z,3.10
2018-02-10T17:41:07.268Z,3.00
2018-02-10T17:43:35.614Z,3.00
2018-02-10T17:46:03.966Z,3.10
2018-02-10T17:48:32.265Z,3.10
2018-02-10T17:51:00.603Z,3.00
2018-02-10T17:53:44.146Z,3.00
2018-02-10T17:56:12.474Z,3.00
2018-02-10T17:58:40.787Z,2.90
2018-02-10T18:01:09.118Z,3.00
2018-02-10T18:03:37.587Z,2.90
2018-02-10T18:06:05.920Z,3.00
2018-02-10T18:08:34.302Z,3.00
2018-02-10T18:11:02.662Z,3.00
2018-02-10T18:13:30.943Z,3.00
2018-02-10T18:15:59.258Z,3.00
2018-02-10T18:18:27.557Z,2.90
2018-02-10T18:27:30.085Z,3.00
2018-02-10T18:30:04.111Z,3.00
2018-02-10T18:32:32.523Z,2.90
2018-02-10T18:35:01.831Z,2.90
2018-02-10T18:37:31.142Z,2.90
2018-02-10T18:39:59.478Z,2.90
2018-02-10T18:42:29.562Z,2.90
2018-02-10T18:44:58.226Z,2.90
2018-02-10T18:47:27.709Z,2.90
2018-02-10T18:49:56.119Z,2.80
2018-02-10T18:52:43.805Z,2.80
2018-02-10T18:55:12.123Z,2.80
2018-02-10T18:57:40.590Z,2.80
2018-02-10T19:00:08.906Z,2.80
2018-02-10T19:02:42.153Z,2.90
2018-02-10T19:05:15.868Z,2.90
2018-02-10T19:23:24.045Z,2.90
2018-02-10T19:26:04.404Z,2.70
2018-02-10T19:28:32.789Z,2.80
2018-02-10T19:31:01.201Z,2.80
2018-02-10T19:33:29.571Z,2.70
2018-02-10T19:35:57.924Z,2.80
2018-02-10T19:38:26.256Z,2.80
2018-02-10T19:40:54.682Z,2.80
2018-02-10T19:43:22.987Z,2.80
2018-02-10T19:45:51.298Z,2.80
2018-02-10T19:48:19.619Z,2.80
2018-02-10T19:50:50.928Z,2.80
2018-02-10T19:53:20.334Z,2.70
2018-02-10T19:55:48.818Z,2.70
2018-02-10T19:58:17.190Z,2.80
2018-02-10T20:00:45.645Z,2.80
2018-02-10T20:03:14.178Z,2.80
2018-02-10T20:05:42.522Z,2.80
2018-02-10T20:08:10.849Z,2.70
2018-02-10T20:10:39.553Z,2.60
2018-02-10T20:13:08.032Z,2.60
2018-02-10T20:15:36.417Z,2.70
2018-02-10T20:18:04.742Z,2.70
2018-02-10T20:20:33.202Z,2.60
2018-02-10T20:23:01.535Z,2.60
2018-02-10T20:25:29.905Z,2.60
2018-02-10T20:27:58.311Z,2.60
2018-02-10T20:30:26.736Z,2.60
2018-02-10T20:32:57.182Z,2.50
2018-02-10T20:35:25.552Z,2.60
2018-02-10T20:37:53.902Z,2.50
2018-02-10T20:40:36.373Z,2.60
2018-02-10T20:43:04.734Z,2.50
2018-02-10T20:45:35.240Z,2.60
2018-02-10T20:48:09.175Z,2.70
2018-02-10T20:50:44.443Z,2.70
2018-02-10T20:53:13.087Z,2.70
2018-02-10T20:55:41.563Z,2.70
2018-02-10T20:58:09.922Z,2.70
2018-02-10T21:00:38.254Z,2.60
2018-02-10T21:03:06.734Z,2.60
2018-02-10T21:05:35.036Z,2.60
2018-02-10T21:08:03.422Z,2.60
2018-02-10T21:10:31.780Z,2.50
2018-02-10T21:13:00.180Z,2.50
2018-02-10T21:15:28.502Z,2.50
2018-02-10T21:17:56.842Z,2.60
2018-02-10T21:20:25.138Z,2.60
2018-02-10T21:22:53.887Z,2.60
2018-02-10T21:25:22.207Z,2.50
2018-02-10T21:27:50.604Z,2.60
2018-02-10T21:30:18.952Z,2.60
2018-02-10T21:32:47.244Z,2.60
2018-02-10T21:35:15.629Z,2.60
2018-02-10T21:37:44.897Z,2.60
2018-02-10T21:40:13.253Z,2.60
2018-02-10T21:42:41.618Z,2.50
2018-02-10T21:45:09.938Z,2.50
2018-02-10T21:47:38.292Z,2.60
2018-02-10T21:50:06.632Z,2.60
2018-02-10T21:52:34.968Z,2.60
2018-02-10T21:55:03.300Z,2.50
2018-02-10T21:57:31.705Z,2.60
2018-02-10T22:00:00.105Z,2.60
2018-02-10T22:02:28.459Z,2.70
2018-02-10T22:04:56.881Z,2.60
2018-02-10T22:07:25.303Z,2.60
2018-02-10T22:09:53.655Z,2.60
2018-02-10T22:12:22.112Z,2.60
2018-02-10T22:14:51.387Z,2.50
2018-02-10T22:17:20.664Z,2.50
2018-02-10T22:19:48.969Z,2.60
2018-02-10T22:22:17.337Z,2.50
2018-02-10T22:24:45.736Z,2.50
2018-02-10T22:27:14.136Z,2.50
2018-02-10T22:29:42.559Z,2.40
2018-02-10T22:32:10.930Z,2.40
2018-02-10T22:34:40.182Z,2.20
2018-02-10T22:37:08.479Z,2.20
2018-02-10T22:39:36.924Z,2.30
2018-02-10T22:42:06.104Z,2.20
2018-02-10T22:44:34.420Z,2.20
2018-02-10T22:47:02.872Z,2.10
2018-02-10T22:49:32.279Z,2.10
2018-02-10T22:52:00.840Z,2.10
2018-02-10T22:54:30.156Z,2.00
2018-02-10T22:56:58.540Z,2.00
2018-02-10T22:59:26.866Z,1.90
2018-02-10T23:01:55.197Z,1.90
2018-02-10T23:04:23.614Z,1.90
2018-02-10T23:06:52.019Z,1.90
2018-02-10T23:09:20.303Z,1.80
2018-02-10T23:11:48.794Z,1.80
2018-02-10T23:14:17.265Z,1.80
2018-02-10T23:16:45.626Z,1.90
2018-02-10T23:19:14.031Z,1.80
2018-02-10T23:21:42.504Z,1.80
2018-02-10T23:24:10.813Z,1.80
2018-02-10T23:26:39.119Z,1.80
2018-02-10T23:29:07.563Z,1.70
2018-02-10T23:31:36.024Z,1.70
2018-02-10T23:34:04.362Z,1.70
2018-02-10T23:36:32.754Z,1.70
2018-02-10T23:39:01.160Z,1.70
2018-02-10T23:41:29.540Z,1.80
2018-02-10T23:43:58.896Z,1.70
2018-02-10T23:46:27.213Z,1.70
2018-02-10T23:48:55.530Z,1.70
2018-02-10T23:51:23.850Z,1.70
2018-02-10T23:53:52.183Z,1.70
2018-02-10T23:56:20.678Z,1.80
2018-02-10T23:58:49.099Z,1.80
